Time;durP1;ratioP1;P1;durP2;ratioP2;P2;SDS_P1;SDS_P2;PMS_P1;PMS_P2;Temp;Humidity;BMP_temperature;BMP_pressure;BME280_temperature;BME280_humidity;BME280_pressure;Samples;Min_cycle;Max_cycle;Signal;HPM_P1;HPM_P2
2021/09/23 00:00:58;;;;;;;6.97;3.72;;;;;;;18.53;44.78;102099.78;4995728;28;20475;-61
2021/09/23 00:05:55;;;;;;;7.88;3.67;;;;;;;18.50;44.48;102103.66;4996214;28;20046;-61
2021/09/23 00:08:20;;;;;;;5.32;3.45;;;;;;;18.48;43.60;102107.53;4995805;28;20034;-61
2021/09/23 00:10:46;;;;;;;6.57;4.00;;;;;;;18.46;43.83;102104.06;4995872;28;20109;-61
2021/09/23 00:13:12;;;;;;;7.07;3.67;;;;;;;18.46;43.52;102104.06;4994481;28;20076;-61
2021/09/23 00:15:38;;;;;;;7.13;3.17;;;;;;;18.43;44.44;102085.34;4996077;28;20029;-61
2021/09/23 00:18:07;;;;;;;4.80;2.92;;;;;;;18.42;44.42;102076.38;4994932;28;20030;-61
2021/09/23 00:20:35;;;;;;;5.90;3.40;;;;;;;18.41;43.94;102068.38;4995841;28;20026;-61
2021/09/23 00:23:01;;;;;;;5.45;3.85;;;;;;;18.36;44.82;102057.13;4994839;28;20431;-61
2021/09/23 00:25:27;;;;;;;6.90;3.60;;;;;;;18.31;44.69;102060.31;4995708;28;20081;-61
2021/09/23 00:27:56;;;;;;;7.00;3.83;;;;;;;18.31;43.95;102056.72;4994481;28;20030;-61
2021/09/23 00:30:22;;;;;;;7.63;4.30;;;;;;;18.28;44.36;102051.59;4995668;28;20030;-61
2021/09/23 00:32:49;;;;;;;5.25;3.63;;;;;;;18.23;44.05;102048.47;4995291;28;20030;-61
2021/09/23 00:35:14;;;;;;;9.45;3.88;;;;;;;18.23;44.13;102043.06;4995634;28;20038;-61
2021/09/23 00:37:40;;;;;;;6.78;4.45;;;;;;;18.24;44.13;102051.03;4995643;28;20475;-61
2021/09/23 00:40:08;;;;;;;8.30;4.00;;;;;;;18.24;44.48;102055.59;4994880;28;20022;-62
2021/09/23 00:42:37;;;;;;;7.60;4.65;;;;;;;18.25;43.83;102057.31;4995562;28;20026;-61
2021/09/23 00:45:04;;;;;;;4.75;3.78;;;;;;;18.23;44.54;102045.78;4995505;28;20022;-61
2021/09/23 00:47:30;;;;;;;7.65;4.47;;;;;;;18.26;44.53;102054.44;5010467;28;20023;-62
2021/09/23 00:49:55;;;;;;;7.22;4.50;;;;;;;18.28;44.41;102057.03;4994342;28;20069;-61
2021/09/23 00:52:25;;;;;;;7.70;4.30;;;;;;;18.29;44.15;102059.56;4993598;28;20053;-61
2021/09/23 00:54:50;;;;;;;7.93;4.45;;;;;;;18.31;44.83;102056.72;4995115;28;20022;-61
2021/09/23 00:57:17;;;;;;;11.77;5.47;;;;;;;18.27;45.07;102042.59;4994967;28;20390;-61
2021/09/23 00:59:47;;;;;;;12.48;5.45;;;;;;;18.31;45.43;102040.44;4995685;28;20125;-61
2021/09/23 01:02:12;;;;;;;9.55;4.60;;;;;;;18.32;45.38;102028.56;4994905;28;20515;-61
2021/09/23 01:04:42;;;;;;;7.82;4.57;;;;;;;18.34;44.71;102030.13;4995439;28;20089;-61
2021/09/23 01:07:09;;;;;;;9.85;4.32;;;;;;;18.35;44.72;102039.13;4995413;28;20080;-61
2021/09/23 01:09:40;;;;;;;14.70;5.25;;;;;;;18.34;44.59;102023.88;4993950;28;20080;-61
2021/09/23 01:12:06;;;;;;;9.35;5.30;;;;;;;18.38;45.59;102019.84;4994025;28;20034;-61
2021/09/23 01:14:31;;;;;;;13.77;6.72;;;;;;;18.40;44.61;102017.81;4994964;28;20032;-61
2021/09/23 01:16:56;;;;;;;16.23;6.38;;;;;;;18.43;45.20;102017.53;4995222;28;20042;-61
2021/09/23 01:19:22;;;;;;;14.45;6.25;;;;;;;18.42;44.41;102013.13;4995320;28;20026;-61
2021/09/23 01:21:47;;;;;;;15.65;6.35;;;;;;;18.51;45.11;102015.78;4977524;28;20022;-61
2021/09/23 01:24:13;;;;;;;13.00;7.05;;;;;;;18.57;45.21;102004.34;4995163;28;20414;-61
2021/09/23 01:26:38;;;;;;;12.93;5.80;;;;;;;18.56;45.62;101991.75;4995251;28;20384;-61
2021/09/23 01:29:03;;;;;;;12.57;5.97;;;;;;;18.59;45.03;101979.78;4995551;28;20064;-61
2021/09/23 01:31:29;;;;;;;10.85;5.85;;;;;;;18.63;45.09;101989.31;4995118;28;20026;-61
2021/09/23 01:33:54;;;;;;;9.80;6.03;;;;;;;18.63;45.37;101974.88;4995127;28;20057;-61
2021/09/23 01:36:19;;;;;;;15.00;7.55;;;;;;;18.65;44.69;101973.72;4995743;28;20065;-61
2021/09/23 01:38:45;;;;;;;14.82;6.30;;;;;;;18.68;45.36;101973.41;4995611;28;20053;-61
2021/09/23 01:41:11;;;;;;;14.48;6.55;;;;;;;18.71;46.02;101970.38;4995151;28;20033;-61
2021/09/23 01:43:36;;;;;;;17.25;6.82;;;;;;;18.76;45.00;101968.06;4995079;28;20054;-61
2021/09/23 01:46:02;;;;;;;13.60;6.63;;;;;;;18.79;45.35;101967.75;4996387;28;20530;-61
2021/09/23 01:48:27;;;;;;;12.07;6.95;;;;;;;18.83;45.84;101961.03;4999185;28;20027;-61
2021/09/23 01:50:52;;;;;;;14.85;8.00;;;;;;;18.89;44.98;101959.53;4998481;28;20034;-61
2021/09/23 01:53:18;;;;;;;10.30;5.85;;;;;;;18.93;45.38;101959.06;4999457;28;20037;-61
2021/09/23 01:55:43;;;;;;;13.10;6.90;;;;;;;19.00;45.16;101949.31;4998557;28;20077;-61
2021/09/23 01:58:08;;;;;;;12.88;6.70;;;;;;;19.06;45.74;101945.09;4999185;28;20034;-61
2021/09/23 02:00:34;;;;;;;10.88;5.93;;;;;;;19.12;46.06;101945.31;4999237;28;20026;-61
2021/09/23 02:02:59;;;;;;;13.75;6.43;;;;;;;19.16;45.68;101944.00;4998633;28;20054;-61
2021/09/23 02:05:25;;;;;;;17.10;6.65;;;;;;;19.24;45.49;101945.06;4999436;28;20037;-61
2021/09/23 02:07:50;;;;;;;12.30;6.55;;;;;;;19.32;45.86;101940.53;4998611;28;20026;-61
2021/09/23 02:10:16;;;;;;;12.02;6.15;;;;;;;19.38;45.88;101941.78;4998952;28;20023;-61
2021/09/23 02:12:41;;;;;;;11.52;5.82;;;;;;;19.42;45.46;101935.06;4999243;28;20030;-61
2021/09/23 02:15:08;;;;;;;8.20;5.53;;;;;;;19.48;45.74;101929.84;4999150;28;20026;-61
2021/09/23 02:17:33;;;;;;;8.52;5.22;;;;;;;19.49;46.08;101917.06;4998051;28;20042;-61
2021/09/23 02:19:59;;;;;;;8.05;5.00;;;;;;;19.56;46.27;101924.44;4998941;28;20033;-61
2021/09/23 02:22:24;;;;;;;11.10;5.60;;;;;;;19.57;46.02;101922.59;4998656;28;20030;-61
2021/09/23 02:24:50;;;;;;;12.85;6.25;;;;;;;19.61;45.88;101923.97;4999238;28;20029;-61
2021/09/23 02:27:16;;;;;;;10.35;5.28;;;;;;;19.64;45.82;101929.06;4998907;28;20066;-61
2021/09/23 02:29:41;;;;;;;10.27;5.82;;;;;;;19.65;45.25;101930.78;4998484;28;20037;-62
2021/09/23 02:32:07;;;;;;;11.15;5.63;;;;;;;19.68;46.56;101933.19;4998688;28;20109;-62
2021/09/23 02:34:33;;;;;;;11.00;5.68;;;;;;;19.72;46.26;101932.69;4998707;28;20101;-61
2021/09/23 02:36:58;;;;;;;11.10;6.22;;;;;;;19.73;46.02;101933.56;4998767;28;20391;-62
2021/09/23 02:39:24;;;;;;;12.57;5.68;;;;;;;19.73;46.32;101933.56;4998590;28;20022;-61
2021/09/23 02:41:49;;;;;;;10.40;5.93;;;;;;;19.74;46.28;101937.97;4998965;28;20029;-61
2021/09/23 02:44:14;;;;;;;12.52;6.38;;;;;;;19.73;46.23;101928.97;4998278;28;20392;-61
2021/09/23 02:46:40;;;;;;;11.73;6.47;;;;;;;19.73;46.13;101930.84;4998488;28;20031;-62
2021/09/23 02:49:06;;;;;;;17.33;6.55;;;;;;;19.72;45.94;101931.84;4998542;28;20022;-61
2021/09/23 02:51:31;;;;;;;12.43;6.13;;;;;;;19.68;45.95;101925.03;4998308;28;20030;-62
2021/09/23 02:53:57;;;;;;;11.18;5.63;;;;;;;19.70;46.07;101923.84;4997179;28;20022;-61
2021/09/23 02:56:22;;;;;;;13.10;6.13;;;;;;;19.67;46.40;101918.75;4996743;28;20026;-61
2021/09/23 02:58:48;;;;;;;12.25;5.80;;;;;;;19.64;45.91;101915.47;4996961;28;20085;-61
2021/09/23 03:01:14;;;;;;;11.23;5.32;;;;;;;19.59;46.37;101915.13;4997731;28;20517;-61
2021/09/23 03:03:40;;;;;;;9.85;5.82;;;;;;;19.55;46.45;101911.88;4998054;28;20112;-61
2021/09/23 03:06:05;;;;;;;11.25;5.63;;;;;;;19.56;46.05;101921.75;4997463;28;20117;-61
2021/09/23 03:08:30;;;;;;;13.02;5.57;;;;;;;19.55;46.00;101922.75;4997995;28;20030;-61
2021/09/23 03:10:56;;;;;;;9.82;6.25;;;;;;;19.54;46.59;101909.31;4997664;28;20386;-61
2021/09/23 03:13:21;;;;;;;10.63;5.60;;;;;;;19.56;46.19;101910.00;4996634;28;20034;-61
2021/09/23 03:15:47;;;;;;;9.45;5.45;;;;;;;19.55;46.42;101908.28;4997897;28;20018;-61
2021/09/23 03:18:13;;;;;;;8.95;4.70;;;;;;;19.56;46.17;101912.72;4998751;28;20026;-61
2021/09/23 03:20:40;;;;;;;10.77;6.22;;;;;;;19.56;46.10;101915.44;4998182;28;20030;-61
2021/09/23 03:23:05;;;;;;;7.68;4.85;;;;;;;19.56;46.18;101904.56;4998896;28;20030;-61
2021/09/23 03:25:31;;;;;;;10.05;5.43;;;;;;;19.52;46.02;101882.28;4996376;28;20034;-61
2021/09/23 03:27:57;;;;;;;10.93;5.50;;;;;;;19.54;45.82;101882.13;4996916;28;20102;-61
2021/09/23 03:30:22;;;;;;;11.35;4.97;;;;;;;19.52;45.89;101874.13;4998108;28;20060;-61
2021/09/23 03:32:47;;;;;;;9.50;5.40;;;;;;;19.51;46.49;101877.03;4997654;28;20030;-61
2021/09/23 03:35:13;;;;;;;11.52;5.78;;;;;;;19.51;46.89;101879.75;4997871;28;20022;-61
2021/09/23 03:37:38;;;;;;;10.32;5.10;;;;;;;19.50;46.38;101880.75;4997702;28;20027;-61
2021/09/23 03:40:05;;;;;;;6.88;4.43;;;;;;;19.53;46.53;101885.84;4996077;28;20106;-61
2021/09/23 03:42:30;;;;;;;14.93;5.10;;;;;;;19.48;46.48;101864.63;4995849;28;20030;-61
2021/09/23 03:44:56;;;;;;;8.38;4.40;;;;;;;19.50;46.45;101867.16;4997557;28;20157;-62
2021/09/23 03:47:21;;;;;;;10.68;4.97;;;;;;;19.50;46.52;101867.16;4997448;28;20029;-61
2021/09/23 03:49:47;;;;;;;8.38;4.25;;;;;;;19.37;46.10;101850.41;4996722;28;20018;-61
2021/09/23 03:52:12;;;;;;;9.95;4.60;;;;;;;19.48;45.96;101870.06;4997436;28;20388;-61
2021/09/23 03:54:37;;;;;;;11.02;5.25;;;;;;;19.46;46.30;101858.47;4997289;28;20034;-62
2021/09/23 03:57:03;;;;;;;15.60;4.93;;;;;;;19.47;46.35;101856.59;4995710;28;20034;-61
2021/09/23 03:59:28;;;;;;;7.85;4.50;;;;;;;19.47;46.62;101856.59;4997232;28;20030;-61
2021/09/23 04:01:53;;;;;;;8.55;4.60;;;;;;;19.46;46.42;101865.75;4996410;28;20052;-61
2021/09/23 04:04:19;;;;;;;12.95;4.63;;;;;;;19.47;45.85;101870.19;4995516;28;20391;-61
2021/09/23 04:06:45;;;;;;;8.27;4.55;;;;;;;19.44;47.34;101868.66;4997001;28;20033;-61
2021/09/23 04:09:11;;;;;;;11.02;4.68;;;;;;;19.46;46.26;101876.63;4996066;28;20098;-61
2021/09/23 04:11:37;;;;;;;7.68;4.63;;;;;;;19.47;46.74;101878.34;4997104;28;20032;-61
2021/09/23 04:14:04;;;;;;;11.18;5.07;;;;;;;19.45;46.64;101864.06;4996388;28;20040;-61
2021/09/23 04:16:29;;;;;;;8.30;4.75;;;;;;;19.46;46.38;101865.75;4996696;28;20027;-61
2021/09/23 04:18:54;;;;;;;15.02;4.60;;;;;;;19.47;46.19;101859.31;4996844;28;20030;-61
2021/09/23 04:21:20;;;;;;;12.77;4.90;;;;;;;19.46;45.99;101860.31;4996941;28;20073;-61
2021/09/23 04:23:46;;;;;;;9.90;5.18;;;;;;;19.46;46.35;101873.91;4996534;28;20105;-61
2021/09/23 04:26:12;;;;;;;8.52;4.80;;;;;;;19.46;46.33;101871.19;4996914;28;20034;-61
2021/09/23 04:28:37;;;;;;;11.35;6.07;;;;;;;19.44;46.92;101862.38;4996195;28;20022;-61
2021/09/23 04:31:02;;;;;;;7.25;4.47;;;;;;;19.44;46.52;101867.78;4995785;28;20022;-61
2021/09/23 04:33:29;;;;;;;6.38;4.28;;;;;;;19.38;46.94;101852.09;4996769;28;20391;-61
2021/09/23 04:35:54;;;;;;;10.32;4.78;;;;;;;19.39;46.56;101862.00;4997142;28;20023;-61
2021/09/23 04:38:20;;;;;;;9.02;5.28;;;;;;;19.39;46.73;101862.00;4996758;28;20037;-61
2021/09/23 04:40:45;;;;;;;6.18;4.55;;;;;;;19.37;46.88;101853.13;4996803;28;20022;-61
2021/09/23 04:43:11;;;;;;;10.23;4.88;;;;;;;19.37;46.44;101855.84;4996714;28;20065;-61
2021/09/23 04:45:36;;;;;;;10.43;5.40;;;;;;;19.33;46.30;101849.88;4997283;28;20057;-61
2021/09/23 04:48:02;;;;;;;12.73;5.07;;;;;;;19.37;46.49;101855.84;4996533;28;20088;-61
2021/09/23 04:50:28;;;;;;;8.90;4.38;;;;;;;19.36;46.38;101865.00;4996432;28;20030;-61
2021/09/23 04:52:53;;;;;;;10.18;4.78;;;;;;;19.35;46.94;101863.28;4997105;28;20077;-61
2021/09/23 04:55:19;;;;;;;12.20;4.00;;;;;;;19.37;46.43;101864.00;4995880;28;20038;-61
2021/09/23 04:57:44;;;;;;;9.00;4.88;;;;;;;19.35;46.43;101868.72;4996886;28;20045;-62
2021/09/23 05:00:10;;;;;;;11.98;4.68;;;;;;;19.36;46.28;101875.88;4996749;28;20018;-61
2021/09/23 05:02:35;;;;;;;8.55;4.50;;;;;;;19.34;46.37;101869.75;4996641;28;20058;-61
2021/09/23 05:05:01;;;;;;;11.07;4.50;;;;;;;19.33;46.70;101878.91;4997316;28;20041;-61
2021/09/23 05:07:27;;;;;;;15.95;5.13;;;;;;;19.30;46.52;101877.38;4995542;28;20395;-61
2021/09/23 05:09:52;;;;;;;10.82;5.50;;;;;;;19.29;47.30;101882.97;4979201;28;20029;-61
2021/09/23 05:12:17;;;;;;;10.07;5.28;;;;;;;19.26;46.57;101896.88;4993715;28;20026;-61
2021/09/23 05:14:43;;;;;;;9.73;4.50;;;;;;;19.25;46.47;101895.16;4997070;28;20501;-61
2021/09/23 05:17:08;;;;;;;8.23;3.88;;;;;;;19.25;47.14;101890.59;4973474;28;20026;-61
2021/09/23 05:19:33;;;;;;;8.40;4.18;;;;;;;19.24;46.80;101899.72;4995529;28;20030;-63
2021/09/23 05:21:59;;;;;;;8.85;4.65;;;;;;;19.22;47.04;101901.75;4998514;28;20033;-61
2021/09/23 05:24:24;;;;;;;9.77;4.70;;;;;;;19.19;46.68;101908.38;4998638;28;20109;-61
2021/09/23 05:26:49;;;;;;;9.75;4.35;;;;;;;19.17;46.06;101898.69;5000506;28;20026;-61
2021/09/23 05:29:15;;;;;;;8.80;4.43;;;;;;;19.12;46.42;101901.84;5000408;28;20390;-60
2021/09/23 05:31:40;;;;;;;12.23;5.57;;;;;;;19.07;47.03;101896.03;4999563;28;20018;-61
2021/09/23 05:34:05;;;;;;;8.00;5.20;;;;;;;19.02;46.95;101890.25;5000529;28;20030;-61
2021/09/23 05:36:31;;;;;;;10.70;5.10;;;;;;;18.97;46.64;101881.72;5000174;28;20097;-60
2021/09/23 05:38:59;;;;;;;13.85;4.97;;;;;;;18.93;46.64;101876.75;5000216;28;20057;-61
2021/09/23 05:41:26;;;;;;;14.90;4.80;;;;;;;18.92;46.79;101884.06;4999586;28;20034;-61
2021/09/23 05:43:51;;;;;;;7.35;4.47;;;;;;;18.92;47.14;101873.19;4999294;28;20018;-60
2021/09/23 05:46:17;;;;;;;8.63;5.63;;;;;;;18.90;46.97;101864.34;5000039;28;20033;-60
2021/09/23 05:48:42;;;;;;;11.40;5.18;;;;;;;18.96;47.10;101871.84;5000017;28;20026;-60
2021/09/23 05:51:08;;;;;;;10.50;4.65;;;;;;;19.00;46.14;101859.69;5000005;28;20053;-60
2021/09/23 05:53:33;;;;;;;16.42;6.28;;;;;;;19.02;46.98;101857.66;4999853;28;20030;-60
2021/09/23 05:55:58;;;;;;;13.38;4.93;;;;;;;19.06;46.44;101856.34;4999126;28;20486;-60
2021/09/23 05:58:24;;;;;;;10.20;5.28;;;;;;;19.10;46.59;101844.13;4999283;28;20026;-61
2021/09/23 06:00:49;;;;;;;12.23;5.35;;;;;;;19.16;46.85;101840.78;4999799;28;20022;-60
2021/09/23 06:03:14;;;;;;;11.40;5.05;;;;;;;19.22;46.75;101838.41;4999819;28;20043;-60
2021/09/23 06:05:40;;;;;;;12.93;4.70;;;;;;;19.29;46.40;101828.63;4999883;28;20031;-60
2021/09/23 06:08:05;;;;;;;8.88;4.50;;;;;;;19.44;46.32;101830.59;4999955;28;20109;-61
2021/09/23 06:10:30;;;;;;;13.85;5.30;;;;;;;19.63;46.46;101841.22;4998827;28;20391;-60
2021/09/23 06:12:56;;;;;;;9.02;4.57;;;;;;;19.80;46.67;101838.56;4999972;28;20077;-60
2021/09/23 06:15:21;;;;;;;9.60;4.35;;;;;;;19.98;46.29;101833.88;4999822;28;20030;-60
2021/09/23 06:17:46;;;;;;;10.30;4.70;;;;;;;20.12;45.91;101828.66;4999294;28;20467;-60
2021/09/23 06:20:12;;;;;;;8.88;4.65;;;;;;;20.29;45.50;101835.88;4999222;28;20050;-60
2021/09/23 06:22:38;;;;;;;12.90;5.00;;;;;;;20.45;46.38;101836.91;4997932;28;20038;-60
2021/09/23 06:25:04;;;;;;;10.68;3.97;;;;;;;20.61;45.73;101831.44;4998266;28;20483;-60
2021/09/23 06:27:29;;;;;;;10.25;5.22;;;;;;;20.72;45.28;101833.84;4998760;28;20026;-60
2021/09/23 06:29:55;;;;;;;14.50;4.10;;;;;;;20.89;45.40;101841.84;4999381;28;20031;-60
2021/09/23 06:32:20;;;;;;;8.35;4.60;;;;;;;21.07;45.23;101835.34;4998542;28;20061;-61
2021/09/23 06:34:45;;;;;;;11.20;4.15;;;;;;;21.20;45.22;101836.53;4998664;28;20022;-60
2021/09/23 06:37:13;;;;;;;7.97;4.15;;;;;;;21.32;45.15;101837.88;4998150;28;20022;-60
2021/09/23 06:39:39;;;;;;;8.63;4.40;;;;;;;21.45;45.37;101838.19;4998138;28;20081;-60
2021/09/23 06:42:04;;;;;;;7.03;4.32;;;;;;;21.58;45.66;101843.06;4998176;28;20027;-61
2021/09/23 06:44:30;;;;;;;6.47;3.95;;;;;;;21.73;45.42;101841.31;4997546;28;20073;-60
2021/09/23 06:46:56;;;;;;;7.55;4.22;;;;;;;21.89;45.14;101835.81;4996361;28;20367;-60
2021/09/23 06:49:23;;;;;;;7.57;4.53;;;;;;;22.00;44.69;101820.91;4996958;28;20027;-60
2021/09/23 06:51:49;;;;;;;10.43;4.88;;;;;;;22.12;44.33;101824.94;4980690;28;20088;-60
2021/09/23 06:54:15;;;;;;;9.27;4.22;;;;;;;22.29;44.29;101822.94;4997452;28;20057;-60
2021/09/23 06:56:40;;;;;;;9.63;4.38;;;;;;;22.40;44.64;101828.84;4998189;28;20153;-61
2021/09/23 06:59:05;;;;;;;8.00;4.03;;;;;;;22.53;43.57;101823.63;4997198;28;20029;-61
2021/09/23 07:01:33;;;;;;;11.65;3.88;;;;;;;22.67;44.57;101824.72;4997025;28;20046;-60
2021/09/23 07:03:58;;;;;;;7.20;3.53;;;;;;;22.83;44.47;101818.28;4997372;28;20030;-60
2021/09/23 07:06:23;;;;;;;7.53;3.60;;;;;;;22.93;43.38;101824.34;4997941;28;20026;-60
2021/09/23 07:08:49;;;;;;;9.50;3.55;;;;;;;23.03;43.87;101814.00;4996336;28;20464;-61
2021/09/23 07:11:14;;;;;;;12.77;4.22;;;;;;;23.15;43.97;101807.03;4996820;28;20052;-60
2021/09/23 07:13:40;;;;;;;5.25;3.60;;;;;;;23.27;43.76;101805.53;4996982;28;20036;-60
2021/09/23 07:16:06;;;;;;;13.40;3.92;;;;;;;23.40;43.63;101811.22;4996868;28;20022;-60
2021/09/23 07:18:31;;;;;;;6.80;3.45;;;;;;;23.53;43.57;101808.69;4995304;28;20035;-61
2021/09/23 07:20:57;;;;;;;8.57;3.53;;;;;;;23.67;42.92;101802.31;4995839;28;20048;-61
2021/09/23 07:23:23;;;;;;;6.68;3.85;;;;;;;23.78;42.72;101804.56;4995618;28;20074;-61
2021/09/23 07:25:49;;;;;;;10.93;3.70;;;;;;;23.84;41.98;101793.91;4995838;28;20022;-61
2021/09/23 07:28:17;;;;;;;6.70;3.95;;;;;;;23.88;42.91;101789.72;4995375;28;20073;-61
2021/09/23 07:30:42;;;;;;;7.30;4.60;;;;;;;23.97;42.50;101800.38;4995637;28;20494;-61
2021/09/23 07:33:08;;;;;;;8.35;4.13;;;;;;;24.11;42.08;101798.69;4994752;28;20022;-61
2021/09/23 07:35:34;;;;;;;11.52;4.00;;;;;;;24.26;42.13;101797.56;4994336;28;20498;-61
2021/09/23 07:38:03;;;;;;;10.85;3.88;;;;;;;24.46;42.34;101799.66;4995379;28;20022;-61
2021/09/23 07:40:28;;;;;;;12.38;3.65;;;;;;;24.58;41.33;101796.19;4994394;28;20030;-61
2021/09/23 07:42:53;;;;;;;6.97;3.90;;;;;;;24.78;41.68;101791.75;4994977;28;20534;-61
2021/09/23 07:45:19;;;;;;;7.03;4.00;;;;;;;24.92;41.77;101791.88;4994828;28;20080;-61
2021/09/23 07:47:45;;;;;;;7.13;3.67;;;;;;;25.04;41.16;101785.66;4994120;28;20069;-61
2021/09/23 07:50:11;;;;;;;8.13;4.38;;;;;;;25.25;41.37;101792.94;4995236;28;20101;-61
2021/09/23 07:52:36;;;;;;;10.10;3.70;;;;;;;25.39;40.73;101781.00;4995450;28;20113;-61
2021/09/23 07:55:03;;;;;;;7.30;3.97;;;;;;;25.56;40.99;101787.03;4994397;28;20027;-61
2021/09/23 07:57:28;;;;;;;8.32;3.80;;;;;;;25.70;40.39;101792.38;4995447;28;20049;-61
2021/09/23 07:59:54;;;;;;;6.28;4.00;;;;;;;25.85;40.63;101784.00;4995325;28;20034;-61
2021/09/23 08:02:19;;;;;;;9.85;5.30;;;;;;;26.01;40.48;101778.97;4995308;28;20077;-61
2021/09/23 08:04:44;;;;;;;9.57;4.90;;;;;;;26.19;39.96;101783.88;4994937;28;20023;-61
2021/09/23 08:07:13;;;;;;;8.05;4.03;;;;;;;26.35;40.13;101785.41;4994858;28;20031;-61
2021/09/23 08:09:39;;;;;;;9.07;4.50;;;;;;;26.48;39.46;101780.78;4994867;28;20026;-61
2021/09/23 08:12:05;;;;;;;7.95;4.10;;;;;;;26.63;40.02;101782.47;4995480;28;20037;-60
2021/09/23 08:14:30;;;;;;;6.55;4.47;;;;;;;26.80;39.81;101770.03;4994788;28;20061;-60
2021/09/23 08:16:56;;;;;;;10.25;4.72;;;;;;;26.94;39.45;101766.22;4995577;28;20022;-60
2021/09/23 08:19:21;;;;;;;7.70;4.60;;;;;;;27.10;39.42;101763.84;4995165;28;20030;-60
2021/09/23 08:21:46;;;;;;;10.77;4.78;;;;;;;27.21;38.81;101754.09;4995025;28;20026;-60
2021/09/23 08:24:12;;;;;;;8.63;4.60;;;;;;;27.39;39.08;101750.63;4994631;28;20032;-60
2021/09/23 08:26:37;;;;;;;8.07;4.65;;;;;;;27.54;38.84;101726.47;4994193;28;20030;-60
2021/09/23 08:29:03;;;;;;;10.75;4.60;;;;;;;27.69;38.07;101727.03;4994537;28;20050;-59
2021/09/23 08:31:29;;;;;;;8.32;4.50;;;;;;;27.85;37.68;101734.78;4992983;28;20034;-60
2021/09/23 08:33:54;;;;;;;9.38;4.78;;;;;;;27.91;37.98;101728.41;4994346;28;20030;-59
2021/09/23 08:36:20;;;;;;;13.48;4.65;;;;;;;28.06;37.26;101730.84;4992900;28;20104;-59
2021/09/23 08:38:46;;;;;;;7.43;4.75;;;;;;;28.12;37.31;101722.56;4997220;28;20030;-59
2021/09/23 08:41:13;;;;;;;9.70;4.63;;;;;;;28.29;37.80;101720.09;4999707;28;20109;-59
2021/09/23 08:43:38;;;;;;;9.48;4.72;;;;;;;28.49;37.95;101714.44;5001446;28;20437;-60
2021/09/23 08:46:04;;;;;;;5.80;4.32;;;;;;;28.60;37.18;101708.16;5001798;28;20018;-60
2021/09/23 08:48:33;;;;;;;10.27;4.32;;;;;;;28.81;36.96;101710.56;5002154;28;20034;-59
2021/09/23 08:51:00;;;;;;;8.38;3.80;;;;;;;28.98;37.32;101703.34;5000311;28;20034;-59
2021/09/23 08:53:27;;;;;;;8.80;4.45;;;;;;;28.95;36.97;101697.47;4997503;28;20030;-60
2021/09/23 08:55:52;;;;;;;8.35;4.80;;;;;;;29.14;36.75;101694.47;4996732;28;20045;-60
2021/09/23 08:58:18;;;;;;;7.65;4.20;;;;;;;29.37;36.05;101686.34;4998462;28;20026;-60
2021/09/23 09:01:02;;;;;;;6.82;4.35;;;;;;;29.58;35.80;101675.91;4999624;28;20037;-59
2021/09/23 09:03:27;;;;;;;10.07;4.30;;;;;;;29.75;35.78;101665.88;4977550;28;20045;-59
2021/09/23 09:05:54;;;;;;;10.32;4.20;;;;;;;30.00;35.65;101666.59;4978125;28;20038;-61
2021/09/23 09:08:22;;;;;;;5.60;4.18;;;;;;;30.15;35.12;101674.44;4982172;28;20035;-60
2021/09/23 09:10:48;;;;;;;8.00;4.18;;;;;;;30.25;34.98;101670.00;4982101;28;20423;-61
2021/09/23 09:13:13;;;;;;;7.50;4.57;;;;;;;30.47;34.49;101684.97;4981842;28;20031;-60
2021/09/23 09:15:42;;;;;;;6.13;4.13;;;;;;;30.64;34.24;101674.00;4983326;28;20023;-60
2021/09/23 09:18:15;;;;;;;6.40;4.35;;;;;;;30.85;33.97;101683.63;4982738;28;20018;-60
2021/09/23 09:21:01;;;;;;;8.27;4.15;;;;;;;31.08;33.75;101689.16;4981613;28;20027;-60
2021/09/23 09:23:49;;;;;;;10.05;4.38;;;;;;;31.31;33.74;101675.25;4980581;28;20031;-60
2021/09/23 09:26:26;;;;;;;9.50;4.80;;;;;;;31.53;33.29;101670.75;4978412;28;20023;-60
2021/09/23 09:28:54;;;;;;;7.05;3.92;;;;;;;31.92;33.14;101676.47;4982001;28;20030;-60
2021/09/23 09:31:20;;;;;;;6.93;4.18;;;;;;;32.42;32.26;101680.16;4981292;28;20029;-61
2021/09/23 09:33:47;;;;;;;5.50;3.95;;;;;;;33.27;31.05;101665.88;4979648;28;20034;-61
2021/09/23 09:36:42;;;;;;;6.07;4.00;;;;;;;35.81;28.22;101665.59;4961466;28;20015;-58
2021/09/23 09:39:14;;;;;;;6.25;3.85;;;;;;;35.93;28.21;101657.78;4973089;28;20039;-59
2021/09/23 09:41:43;;;;;;;10.05;4.82;;;;;;;35.45;29.77;101661.00;4982378;28;20023;-59
2021/09/23 09:44:11;;;;;;;5.97;4.88;;;;;;;35.19;29.41;101656.44;4977671;28;20080;-58
2021/09/23 09:46:55;;;;;;;6.68;3.65;;;;;;;35.07;29.94;101651.94;4976735;28;20492;-58
2021/09/23 09:49:23;;;;;;;8.95;4.35;;;;;;;35.13;29.22;101657.53;4975915;28;20033;-58
2021/09/23 09:52:09;;;;;;;5.55;3.80;;;;;;;35.26;28.71;101657.06;4975358;28;20027;-59
2021/09/23 09:54:34;;;;;;;5.22;3.92;;;;;;;35.26;29.08;101659.84;4976021;28;20023;-58
2021/09/23 09:57:03;;;;;;;6.63;3.42;;;;;;;35.28;28.70;101654.81;4974927;28;20476;-59
2021/09/23 09:59:29;;;;;;;6.53;3.22;;;;;;;35.43;28.51;101671.63;4974322;28;20030;-58
2021/09/23 10:01:56;;;;;;;6.05;3.50;;;;;;;35.65;28.37;101663.91;4982022;28;20050;-58
2021/09/23 10:04:24;;;;;;;4.85;3.50;;;;;;;35.87;27.65;101658.06;4994505;28;20026;-58
2021/09/23 10:06:54;;;;;;;6.13;3.63;;;;;;;36.16;27.16;101657.28;4995142;28;20027;-59
2021/09/23 10:09:20;;;;;;;5.43;3.45;;;;;;;36.45;27.36;101648.31;4995927;28;20045;-58
2021/09/23 10:11:47;;;;;;;5.85;3.30;;;;;;;36.67;27.06;101641.31;4996776;28;20108;-58
2021/09/23 10:14:15;;;;;;;8.55;3.45;;;;;;;36.84;26.67;101634.56;4997003;28;20129;-59
2021/09/23 10:16:41;;;;;;;9.18;3.00;;;;;;;37.07;27.00;101640.41;4997527;28;20101;-58
2021/09/23 10:19:07;;;;;;;9.48;4.25;;;;;;;37.19;26.17;101638.09;4996863;28;20023;-58
2021/09/23 10:21:33;;;;;;;5.32;3.33;;;;;;;37.28;26.38;101641.13;4998283;28;20138;-58
2021/09/23 10:23:59;;;;;;;5.47;3.47;;;;;;;37.41;26.29;101628.47;4999016;28;20034;-58
2021/09/23 10:26:27;;;;;;;4.03;2.80;;;;;;;37.51;26.15;101634.03;4996851;28;20033;-58
2021/09/23 10:28:54;;;;;;;5.20;2.53;;;;;;;37.64;25.68;101619.38;4996975;28;20025;-58
2021/09/23 10:31:22;;;;;;;4.82;2.80;;;;;;;37.69;25.72;101619.38;4979425;28;20022;-58
2021/09/23 10:33:48;;;;;;;3.88;2.72;;;;;;;37.82;25.61;101618.72;4996908;28;20018;-59
2021/09/23 10:36:15;;;;;;;5.32;2.58;;;;;;;37.85;24.71;101610.56;4997460;28;20034;-59
2021/09/23 10:38:42;;;;;;;5.07;3.25;;;;;;;37.97;25.37;101596.22;4997775;28;20026;-59
2021/09/23 10:41:10;;;;;;;3.72;2.70;;;;;;;38.14;24.92;101599.41;4997224;28;20030;-58
2021/09/23 10:43:37;;;;;;;4.00;2.33;;;;;;;38.22;24.25;101598.78;4980007;28;20026;-58
2021/09/23 10:46:04;;;;;;;5.57;2.05;;;;;;;38.26;25.05;101590.63;4997593;28;20030;-59
2021/09/23 10:48:33;;;;;;;4.13;2.60;;;;;;;38.38;24.65;101582.69;4995984;28;20148;-59
2021/09/23 10:50:59;;;;;;;6.68;2.63;;;;;;;38.43;24.58;101589.09;4997366;28;20026;-59
2021/09/23 10:53:25;;;;;;;5.82;2.47;;;;;;;38.52;24.78;101582.81;4997032;28;20033;-59
2021/09/23 10:55:50;;;;;;;3.70;2.35;;;;;;;38.55;24.56;101585.88;4997015;28;20034;-59
2021/09/23 10:58:20;;;;;;;4.05;2.30;;;;;;;38.61;23.42;101575.44;4996819;28;20026;-58
2021/09/23 11:00:45;;;;;;;3.92;2.15;;;;;;;38.64;23.60;101580.47;4995673;28;20034;-59
2021/09/23 11:03:11;;;;;;;5.20;3.10;;;;;;;38.64;24.24;101598.06;4996919;28;20518;-58
2021/09/23 11:05:38;;;;;;;3.42;2.15;;;;;;;38.67;23.74;101585.47;5012395;28;20034;-60
2021/09/23 11:08:10;;;;;;;3.53;2.28;;;;;;;38.82;23.61;101596.50;4996988;28;20045;-59
2021/09/23 11:10:43;;;;;;;2.30;1.90;;;;;;;38.97;23.74;101585.13;4996711;28;20454;-59
2021/09/23 11:13:14;;;;;;;5.97;2.17;;;;;;;38.99;23.57;101596.84;4996756;28;20035;-58
2021/09/23 11:15:42;;;;;;;3.63;2.40;;;;;;;39.00;23.16;101590.13;4996882;28;20018;-58
2021/09/23 11:18:09;;;;;;;4.88;2.55;;;;;;;39.01;23.54;101586.16;4995789;28;20026;-59
2021/09/23 11:20:35;;;;;;;6.35;2.47;;;;;;;38.89;23.27;101580.19;4996502;28;20025;-58